Decoded Metar for CYWK (WABUSH in NL, CANADA) (IATA:YWK) | Meteo·Mobile Aviation Weather
aviador You're here:

CYWK Decoded Metar

WABUSH in NL, CANADA
Report Time2018-08-19 05:00:00
UTC Time2018-08-19 05:27:49
Flight Rules vfr VFR
Wind160° at 06 kt
W.Decomp.*RWY 18: 6.0 kt HW 0.1 kt RCW
W.Rank160° ranks 10
Current wind is above 160° avg. (5.6)
Visibility9999 m
Phenomena:N/A
Clouds:N/A
Expected CloudBase > 400 ft AGL from Temp-Dew spread
CeilingNone
Temp04°C (ISA -7)
Dew Point03°C (93% RH)
AAT0.3°C
QNH1019 hPa
Density Alt820 ft
Elevation1,808 ft
Report Wrong Elevation
Raw Report
CYWK 190500Z AUTO 16006KT 9SM CLR 04/03 A3008 RMK SLP203=

Extra information for CYWK:More info

Metar Taf Metar & Taf Last 4 Metars F.Rules Stats Wind Profile Meteogram Temp Stats Airport Information Weather charts Add Link Nearby VenuesMetar ALERT Operation Metar Decoded Social comments